createdAt,value
2023-11-08T00:02:03.174Z,11.20
2023-11-08T00:04:30.557Z,11.20
2023-11-08T00:06:57.590Z,11.20
2023-11-08T00:09:24.505Z,11.20
2023-11-08T00:11:51.401Z,11.20
2023-11-08T00:14:18.363Z,11.20
2023-11-08T00:16:45.255Z,11.20
2023-11-08T00:19:12.475Z,11.20
2023-11-08T00:21:39.459Z,11.20
2023-11-08T00:24:06.724Z,11.30
2023-11-08T00:26:33.590Z,11.30
2023-11-08T00:29:00.659Z,11.30
2023-11-08T00:31:27.590Z,11.30
2023-11-08T00:33:54.454Z,11.40
2023-11-08T00:36:21.751Z,11.40
2023-11-08T00:38:48.649Z,11.40
2023-11-08T00:41:15.677Z,11.40
2023-11-08T00:43:43.114Z,11.50
2023-11-08T00:46:10.141Z,11.50
2023-11-08T00:48:37.494Z,11.50
2023-11-08T00:51:07.181Z,11.50
2023-11-08T00:53:34.030Z,11.50
2023-11-08T00:56:00.990Z,11.60
2023-11-08T00:58:28.194Z,11.50
2023-11-08T01:00:55.080Z,11.60
2023-11-08T01:03:22.104Z,11.60
2023-11-08T01:05:49.462Z,11.60
2023-11-08T01:08:17.694Z,11.60
2023-11-08T01:10:44.590Z,11.60
2023-11-08T01:13:14.062Z,11.60
2023-11-08T01:15:41.054Z,11.60
2023-11-08T01:18:08.586Z,11.60
2023-11-08T01:20:35.873Z,11.60
2023-11-08T01:23:04.155Z,11.70
2023-11-08T01:25:32.030Z,11.70
2023-11-08T01:27:58.994Z,11.70
2023-11-08T01:30:26.105Z,11.70
2023-11-08T01:32:53.228Z,11.70
2023-11-08T01:35:20.978Z,11.70
2023-11-08T01:37:49.890Z,11.70
2023-11-08T01:40:19.394Z,11.80
2023-11-08T01:42:47.560Z,11.90
2023-11-08T01:45:14.830Z,11.80
2023-11-08T01:47:41.931Z,11.80
2023-11-08T01:50:10.608Z,11.80
2023-11-08T01:52:38.599Z,11.80
2023-11-08T01:55:05.994Z,11.80
2023-11-08T01:57:33.234Z,11.80
2023-11-08T02:00:00.775Z,11.90
2023-11-08T02:02:27.740Z,11.80
2023-11-08T02:04:55.231Z,11.80
2023-11-08T02:07:22.474Z,11.80
2023-11-08T02:09:50.583Z,11.90
2023-11-08T02:12:17.791Z,11.90
2023-11-08T02:15:04.727Z,11.80
2023-11-08T02:17:35.065Z,11.80
2023-11-08T02:20:04.696Z,11.80
2023-11-08T02:22:32.075Z,11.80
2023-11-08T02:24:59.712Z,11.80
2023-11-08T02:27:26.591Z,11.70
2023-11-08T02:29:53.458Z,11.70
2023-11-08T02:32:20.499Z,11.60
2023-11-08T02:34:48.410Z,11.60
2023-11-08T02:37:17.070Z,11.60
2023-11-08T02:39:44.008Z,11.60
2023-11-08T02:42:11.753Z,11.70
2023-11-08T02:44:39.407Z,11.50
2023-11-08T02:47:07.270Z,11.50
2023-11-08T02:49:34.381Z,11.40
2023-11-08T02:52:02.133Z,11.40
2023-11-08T02:54:29.076Z,11.40
2023-11-08T02:56:56.347Z,11.40
2023-11-08T02:59:23.253Z,11.40
2023-11-08T03:01:50.122Z,11.30
2023-11-08T03:04:18.966Z,11.30
2023-11-08T03:06:46.595Z,11.30
2023-11-08T03:09:13.661Z,11.30
2023-11-08T03:11:40.577Z,11.20
2023-11-08T03:14:07.937Z,11.20
2023-11-08T03:16:36.168Z,11.20
2023-11-08T03:19:03.520Z,11.20
2023-11-08T03:21:31.254Z,11.20
2023-11-08T03:23:59.325Z,11.10
2023-11-08T03:26:26.237Z,11.10
2023-11-08T03:28:53.431Z,11.10
2023-11-08T03:31:20.946Z,11.10
2023-11-08T03:33:47.944Z,11.10
2023-11-08T03:36:15.025Z,11.10
2023-11-08T03:38:41.932Z,11.10
2023-11-08T03:41:08.843Z,11.10
2023-11-08T03:43:36.876Z,10.80
2023-11-08T03:46:03.872Z,11.10
2023-11-08T03:48:30.873Z,11.10
2023-11-08T03:50:57.861Z,11.10
2023-11-08T03:53:25.309Z,11.10
2023-11-08T03:55:55.333Z,11.10
2023-11-08T03:58:22.179Z,11.10
2023-11-08T04:00:49.090Z,11.10
2023-11-08T04:03:16.164Z,11.10
2023-11-08T04:05:43.173Z,11.10
2023-11-08T04:08:10.138Z,11.10
2023-11-08T04:10:38.371Z,11.10
2023-11-08T04:13:05.214Z,11.10
2023-11-08T04:15:32.055Z,11.00
2023-11-08T04:17:58.958Z,11.00
2023-11-08T04:20:25.831Z,11.00
2023-11-08T04:22:52.864Z,11.00
2023-11-08T04:25:19.688Z,11.00
2023-11-08T04:27:46.797Z,11.00
2023-11-08T04:30:14.708Z,11.00
2023-11-08T04:32:44.669Z,11.00
2023-11-08T04:35:12.174Z,11.00
2023-11-08T04:37:40.697Z,11.00
2023-11-08T04:40:08.461Z,11.00
2023-11-08T04:42:35.408Z,11.00
2023-11-08T04:45:02.745Z,11.00
2023-11-08T04:47:29.761Z,11.10
2023-11-08T04:49:56.626Z,11.10
2023-11-08T04:52:23.476Z,11.10
2023-11-08T04:54:54.971Z,11.10
2023-11-08T04:57:22.596Z,11.10
2023-11-08T04:59:50.827Z,11.10
2023-11-08T05:02:22.161Z,11.10
2023-11-08T05:04:50.587Z,11.20
2023-11-08T05:07:21.025Z,11.10
2023-11-08T05:09:49.466Z,11.10
2023-11-08T05:12:18.097Z,11.10
2023-11-08T05:14:45.234Z,11.10
2023-11-08T05:17:12.179Z,11.10
2023-11-08T05:19:39.110Z,11.10
2023-11-08T05:22:06.098Z,11.10
2023-11-08T05:24:33.094Z,11.10
2023-11-08T05:27:00.536Z,11.00
2023-11-08T05:29:27.920Z,11.00
2023-11-08T05:31:54.751Z,11.00
2023-11-08T05:34:22.095Z,11.00
2023-11-08T05:36:49.084Z,11.00
2023-11-08T05:39:25.859Z,11.00
2023-11-08T05:41:54.001Z,11.00
2023-11-08T05:44:21.433Z,11.00
2023-11-08T05:46:49.977Z,11.00
2023-11-08T05:49:16.922Z,11.00
2023-11-08T05:51:43.852Z,11.00
2023-11-08T05:54:10.727Z,11.00
2023-11-08T05:56:37.645Z,11.00
2023-11-08T05:59:04.528Z,11.10
2023-11-08T06:01:31.345Z,11.10
2023-11-08T06:03:58.204Z,11.10
2023-11-08T06:06:25.133Z,11.10
2023-11-08T06:08:52.031Z,11.10
2023-11-08T06:11:19.105Z,11.10
2023-11-08T06:13:46.246Z,11.10
2023-11-08T06:16:13.465Z,11.10
2023-11-08T06:18:40.709Z,11.10
2023-11-08T06:21:07.691Z,11.10
2023-11-08T06:23:34.657Z,11.20
2023-11-08T06:26:01.569Z,11.20
2023-11-08T06:28:28.392Z,11.20
2023-11-08T06:30:55.359Z,11.20
2023-11-08T06:33:22.418Z,11.20
2023-11-08T06:35:49.306Z,11.30
2023-11-08T06:38:16.133Z,11.30
2023-11-08T06:40:43.019Z,11.30
2023-11-08T06:43:11.915Z,11.30
2023-11-08T06:45:38.828Z,11.30
2023-11-08T06:48:06.152Z,11.30
2023-11-08T06:50:33.022Z,11.40
2023-11-08T06:53:00.439Z,11.40
2023-11-08T06:55:32.365Z,11.40
2023-11-08T06:58:06.287Z,11.40
2023-11-08T07:00:35.557Z,11.50
2023-11-08T07:03:04.385Z,11.50
2023-11-08T07:05:38.118Z,11.60
2023-11-08T07:08:07.790Z,11.60
2023-11-08T07:10:34.741Z,11.60
2023-11-08T07:13:03.870Z,11.70
2023-11-08T07:15:31.489Z,11.70
2023-11-08T07:17:58.614Z,11.70
2023-11-08T07:20:25.660Z,11.70
2023-11-08T07:22:52.500Z,11.70
2023-11-08T07:25:19.616Z,11.60
2023-11-08T07:27:46.534Z,11.80
2023-11-08T07:30:15.654Z,11.90
2023-11-08T07:32:42.545Z,11.90
2023-11-08T07:35:09.829Z,12.00
2023-11-08T07:37:40.824Z,12.00
2023-11-08T07:40:12.926Z,12.10
2023-11-08T07:42:40.954Z,12.20
2023-11-08T07:45:08.877Z,12.20
2023-11-08T07:47:36.417Z,12.30
2023-11-08T07:50:05.854Z,12.50
2023-11-08T07:52:32.794Z,12.60
2023-11-08T07:55:00.205Z,12.90
2023-11-08T07:57:27.570Z,13.20
2023-11-08T07:59:54.879Z,13.50
2023-11-08T08:02:21.676Z,13.70
2023-11-08T08:04:48.605Z,13.90
2023-11-08T08:07:15.470Z,14.10
2023-11-08T08:09:42.312Z,14.40
2023-11-08T08:12:09.258Z,14.70
2023-11-08T08:14:36.539Z,15.00
2023-11-08T08:17:04.110Z,15.40
2023-11-08T08:19:32.295Z,15.80
2023-11-08T08:22:03.333Z,16.10
2023-11-08T08:24:31.029Z,16.30
2023-11-08T08:26:59.988Z,16.40
2023-11-08T08:29:28.481Z,16.40
2023-11-08T08:31:55.302Z,16.40
2023-11-08T08:34:28.819Z,16.30
2023-11-08T08:36:58.942Z,16.20
2023-11-08T08:39:29.079Z,16.00
2023-11-08T08:41:56.546Z,15.80
2023-11-08T08:44:24.946Z,15.60
2023-11-08T08:46:52.504Z,15.40
2023-11-08T08:49:21.701Z,15.30
2023-11-08T08:51:50.174Z,15.10
2023-11-08T08:54:17.378Z,15.00
2023-11-08T08:56:50.324Z,14.90
2023-11-08T08:59:17.245Z,14.80
2023-11-08T09:01:44.663Z,14.80
2023-11-08T09:04:12.048Z,14.70
2023-11-08T09:06:39.845Z,14.70
2023-11-08T09:09:13.019Z,14.60
2023-11-08T09:11:41.472Z,14.60
2023-11-08T09:14:09.358Z,14.50
2023-11-08T09:16:38.860Z,14.40
2023-11-08T09:19:10.845Z,14.40
2023-11-08T09:21:38.910Z,14.30
2023-11-08T09:24:07.831Z,14.30
2023-11-08T09:26:36.012Z,14.20
2023-11-08T09:29:02.826Z,14.20
2023-11-08T09:31:29.875Z,14.10
2023-11-08T09:34:01.302Z,14.20
2023-11-08T09:36:28.666Z,14.20
2023-11-08T09:38:55.671Z,14.10
2023-11-08T09:41:25.087Z,14.20
2023-11-08T09:43:53.424Z,14.20
2023-11-08T09:46:22.096Z,14.20
2023-11-08T09:48:55.449Z,14.20
2023-11-08T09:51:22.729Z,14.20
2023-11-08T09:53:50.963Z,14.20
2023-11-08T09:56:17.784Z,14.20
2023-11-08T09:58:49.013Z,14.20
2023-11-08T10:01:17.300Z,14.30
2023-11-08T10:03:45.597Z,14.30
2023-11-08T10:06:12.881Z,14.30
2023-11-08T10:08:40.073Z,14.40
2023-11-08T10:11:07.394Z,14.40
2023-11-08T10:13:55.550Z,14.50
2023-11-08T10:16:24.524Z,14.50
2023-11-08T10:19:36.074Z,14.50
2023-11-08T10:21:50.669Z,14.60
2023-11-08T10:24:18.877Z,14.60
2023-11-08T10:26:47.260Z,14.70
2023-11-08T10:29:14.248Z,14.70
2023-11-08T10:31:45.708Z,14.70
2023-11-08T10:34:14.537Z,14.70
2023-11-08T10:36:41.887Z,14.80
2023-11-08T10:39:15.381Z,14.80
2023-11-08T10:41:44.339Z,14.80
2023-11-08T10:44:12.960Z,14.80
2023-11-08T10:46:43.628Z,14.90
2023-11-08T10:49:12.147Z,14.90
2023-11-08T10:51:41.642Z,14.90
2023-11-08T10:54:09.729Z,14.90
2023-11-08T10:56:39.014Z,14.90
2023-11-08T10:59:10.575Z,14.90
2023-11-08T11:01:39.561Z,15.00
2023-11-08T11:04:12.135Z,15.10
2023-11-08T11:06:41.489Z,15.20
2023-11-08T11:09:11.608Z,15.30
2023-11-08T11:11:48.712Z,15.40
2023-11-08T11:14:27.244Z,15.60
2023-11-08T11:17:03.658Z,15.70
2023-11-08T11:19:32.959Z,16.00
2023-11-08T11:22:07.102Z,16.00
2023-11-08T11:24:34.046Z,16.20
2023-11-08T11:27:02.784Z,16.40
2023-11-08T11:29:32.496Z,16.60
2023-11-08T11:32:04.766Z,16.70
2023-11-08T11:34:34.439Z,16.90
2023-11-08T11:37:12.824Z,17.10
2023-11-08T11:40:00.147Z,17.10
2023-11-08T11:42:27.863Z,17.20
2023-11-08T11:45:01.454Z,17.20
2023-11-08T11:47:31.940Z,17.30
2023-11-08T11:50:02.381Z,17.30
2023-11-08T11:52:33.418Z,17.40
2023-11-08T11:55:02.134Z,17.50
2023-11-08T11:57:31.190Z,17.60
2023-11-08T12:00:00.027Z,17.60
2023-11-08T12:02:29.963Z,17.60
2023-11-08T12:04:58.343Z,17.70
2023-11-08T12:07:25.806Z,17.70
2023-11-08T12:09:53.966Z,17.60
2023-11-08T12:12:31.834Z,17.90
2023-11-08T12:15:12.444Z,17.50
2023-11-08T12:17:39.507Z,17.50
2023-11-08T12:20:07.227Z,17.30
2023-11-08T12:22:37.563Z,17.20
2023-11-08T12:25:05.862Z,17.10
2023-11-08T12:27:32.934Z,17.00
2023-11-08T12:29:59.772Z,16.90
2023-11-08T12:32:26.770Z,16.80
2023-11-08T12:34:53.623Z,16.80
2023-11-08T12:37:21.433Z,16.70
2023-11-08T12:39:48.357Z,16.70
2023-11-08T12:42:17.561Z,16.70
2023-11-08T12:44:51.718Z,16.70
2023-11-08T12:47:18.733Z,16.80
2023-11-08T12:49:45.820Z,16.80
2023-11-08T12:52:13.441Z,16.90
2023-11-08T12:54:40.331Z,16.90
2023-11-08T12:57:07.249Z,16.70
2023-11-08T12:59:42.532Z,16.70
2023-11-08T13:02:11.267Z,16.70
2023-11-08T13:04:44.581Z,16.70
2023-11-08T13:07:11.782Z,16.70
2023-11-08T13:09:41.822Z,16.70
2023-11-08T13:12:09.503Z,16.60
2023-11-08T13:14:36.391Z,16.50
2023-11-08T13:17:04.768Z,16.50
2023-11-08T13:19:31.682Z,16.30
2023-11-08T13:21:59.129Z,16.30
2023-11-08T13:24:25.992Z,16.20
2023-11-08T13:26:54.009Z,16.10
2023-11-08T13:29:21.879Z,16.00
2023-11-08T13:31:50.529Z,15.90
2023-11-08T13:34:17.706Z,15.80
2023-11-08T13:36:44.633Z,15.80
2023-11-08T13:39:11.685Z,15.70
2023-11-08T13:41:38.550Z,15.60
2023-11-08T13:44:05.981Z,15.60
2023-11-08T13:46:32.858Z,15.50
2023-11-08T13:49:01.474Z,15.50
2023-11-08T13:51:28.762Z,15.50
2023-11-08T13:53:55.584Z,15.50
2023-11-08T13:56:23.541Z,15.40
2023-11-08T13:58:50.502Z,15.40
2023-11-08T14:01:18.437Z,15.40
2023-11-08T14:03:45.853Z,15.40
2023-11-08T14:06:13.575Z,15.40
2023-11-08T14:08:41.400Z,15.40
2023-11-08T14:11:09.019Z,15.40
2023-11-08T14:13:36.236Z,15.30
2023-11-08T14:16:03.451Z,15.30
2023-11-08T14:18:30.343Z,15.20
2023-11-08T14:20:57.599Z,15.20
2023-11-08T14:23:24.509Z,15.20
2023-11-08T14:25:52.117Z,15.10
2023-11-08T14:28:19.726Z,15.10
2023-11-08T14:30:47.524Z,15.00
2023-11-08T14:33:16.652Z,15.00
2023-11-08T14:35:43.718Z,14.90
2023-11-08T14:38:10.952Z,14.90
2023-11-08T14:40:39.385Z,14.90
2023-11-08T14:43:06.404Z,14.80
2023-11-08T14:45:33.431Z,14.80
2023-11-08T14:48:00.440Z,14.80
2023-11-08T14:50:27.624Z,14.70
2023-11-08T14:52:55.021Z,14.70
2023-11-08T14:55:21.957Z,14.70
2023-11-08T14:57:49.172Z,14.60
2023-11-08T15:00:16.775Z,14.60
2023-11-08T15:02:43.695Z,14.50
2023-11-08T15:05:10.527Z,14.50
2023-11-08T15:09:42.765Z,14.50
2023-11-08T15:10:25.535Z,14.50
2023-11-08T15:12:54.695Z,14.40
2023-11-08T15:15:23.121Z,14.40
2023-11-08T15:17:49.915Z,14.40
2023-11-08T15:20:18.321Z,14.40
2023-11-08T15:22:45.775Z,14.40
2023-11-08T15:25:13.092Z,14.40
2023-11-08T15:27:40.668Z,14.40
2023-11-08T15:30:09.624Z,14.40
2023-11-08T15:32:39.954Z,14.30
2023-11-08T15:35:07.785Z,14.30
2023-11-08T15:37:34.805Z,14.30
2023-11-08T15:40:01.688Z,14.30
2023-11-08T15:42:29.562Z,14.30
2023-11-08T15:44:56.409Z,14.30
2023-11-08T15:47:23.211Z,14.20
2023-11-08T15:49:50.041Z,14.20
2023-11-08T15:52:17.683Z,14.10
2023-11-08T15:54:48.527Z,14.10
2023-11-08T15:57:15.867Z,14.10
2023-11-08T16:00:08.448Z,14.00
2023-11-08T16:02:55.902Z,13.90
2023-11-08T16:05:33.425Z,14.30
2023-11-08T16:08:04.202Z,13.60
2023-11-08T16:10:33.240Z,13.40
2023-11-08T16:13:16.211Z,13.70
2023-11-08T16:16:18.557Z,13.40
2023-11-08T16:19:19.783Z,13.90
2023-11-08T16:21:55.268Z,13.50
2023-11-08T16:25:41.832Z,12.90
2023-11-08T16:28:31.287Z,13.50
2023-11-08T16:32:29.904Z,13.80
2023-11-08T16:43:12.808Z,13.40
2023-11-08T16:45:34.637Z,13.40
2023-11-08T16:48:05.942Z,13.30
2023-11-08T16:50:32.977Z,13.40
2023-11-08T16:53:00.714Z,13.30
2023-11-08T16:55:27.759Z,13.20
2023-11-08T16:57:54.822Z,13.20
2023-11-08T17:00:24.460Z,13.20
2023-11-08T17:02:51.320Z,13.20
2023-11-08T17:05:18.273Z,13.10
2023-11-08T17:07:45.493Z,13.10
2023-11-08T17:10:13.113Z,13.10
2023-11-08T17:12:40.436Z,13.00
2023-11-08T17:15:09.023Z,13.00
2023-11-08T17:17:41.219Z,12.90
2023-11-08T17:20:11.718Z,12.90
2023-11-08T17:22:40.298Z,12.90
2023-11-08T17:25:08.109Z,13.20
2023-11-08T17:32:04.347Z,12.90
2023-11-08T17:34:53.187Z,12.40
2023-11-08T17:38:10.655Z,12.90
2023-11-08T17:40:52.295Z,12.60
2023-11-08T17:43:19.843Z,12.70
2023-11-08T17:45:46.894Z,13.20
2023-11-08T17:48:16.832Z,13.00
2023-11-08T17:50:43.993Z,12.80
2023-11-08T17:53:10.997Z,12.90
2023-11-08T17:55:38.084Z,12.90
2023-11-08T17:58:05.032Z,12.90
2023-11-08T18:00:31.914Z,12.90
2023-11-08T18:02:58.745Z,12.90
2023-11-08T18:05:25.615Z,12.90
2023-11-08T18:07:52.600Z,13.00
2023-11-08T18:10:20.684Z,13.00
2023-11-08T18:12:47.767Z,13.00
2023-11-08T18:15:15.023Z,13.00
2023-11-08T18:17:41.927Z,13.10
2023-11-08T18:20:09.624Z,13.10
2023-11-08T18:22:36.527Z,13.10
2023-11-08T18:25:03.684Z,13.20
2023-11-08T18:27:30.746Z,13.10
2023-11-08T18:29:57.793Z,13.10
2023-11-08T18:32:25.422Z,13.50
2023-11-08T18:34:53.044Z,13.20
2023-11-08T18:37:20.228Z,13.20
2023-11-08T18:39:47.709Z,13.20
2023-11-08T18:42:15.217Z,13.60
2023-11-08T18:44:42.498Z,13.50
2023-11-08T18:47:09.794Z,13.30
2023-11-08T18:49:37.025Z,13.20
2023-11-08T18:52:06.008Z,13.20
2023-11-08T18:54:33.023Z,13.20
2023-11-08T18:56:59.963Z,13.20
2023-11-08T18:59:26.887Z,13.20
2023-11-08T19:01:53.773Z,13.20
2023-11-08T19:04:20.743Z,13.20
2023-11-08T19:06:48.354Z,13.30
2023-11-08T19:09:15.332Z,13.30
2023-11-08T19:11:44.866Z,13.30
2023-11-08T19:14:12.116Z,13.30
2023-11-08T19:16:41.769Z,13.30
2023-11-08T19:19:09.239Z,13.30
2023-11-08T19:21:36.616Z,13.40
2023-11-08T19:24:19.929Z,13.50
2023-11-08T19:26:47.280Z,13.40
2023-11-08T19:29:14.181Z,13.40
2023-11-08T19:31:41.047Z,13.40
2023-11-08T19:34:08.194Z,13.40
2023-11-08T19:36:35.857Z,13.40
2023-11-08T19:39:04.802Z,13.40
2023-11-08T19:41:32.203Z,13.60
2023-11-08T19:43:59.198Z,13.30
2023-11-08T19:46:26.117Z,13.20
2023-11-08T19:48:53.057Z,13.20
2023-11-08T19:51:20.081Z,13.20
2023-11-08T19:53:46.951Z,13.20
2023-11-08T19:56:15.453Z,13.10
2023-11-08T19:58:42.325Z,13.20
2023-11-08T20:01:10.940Z,13.10
2023-11-08T20:03:38.089Z,13.10
2023-11-08T20:06:05.803Z,13.10
2023-11-08T20:08:32.839Z,13.10
2023-11-08T20:10:59.860Z,13.10
2023-11-08T20:13:26.933Z,13.10
2023-11-08T20:15:54.206Z,13.10
2023-11-08T20:18:21.208Z,13.10
2023-11-08T20:20:51.398Z,13.10
2023-11-08T20:23:18.406Z,13.00
2023-11-08T20:25:45.338Z,13.00
2023-11-08T20:28:13.651Z,13.00
2023-11-08T20:30:40.697Z,13.00
2023-11-08T20:33:07.695Z,12.90
2023-11-08T20:35:35.057Z,12.90
2023-11-08T20:38:02.032Z,12.90
2023-11-08T20:40:28.926Z,12.80
2023-11-08T20:42:55.838Z,12.80
2023-11-08T20:45:22.852Z,12.80
2023-11-08T20:47:49.813Z,12.80
2023-11-08T20:50:16.807Z,12.80
2023-11-08T20:52:44.709Z,12.70
2023-11-08T20:55:12.365Z,12.70
2023-11-08T20:57:44.580Z,12.70
2023-11-08T21:00:13.715Z,12.70
2023-11-08T21:02:44.074Z,12.70
2023-11-08T21:05:13.397Z,12.70
2023-11-08T21:07:40.990Z,12.70
2023-11-08T21:10:09.200Z,12.70
2023-11-08T21:12:36.271Z,12.70
2023-11-08T21:15:04.667Z,12.70
2023-11-08T21:17:32.965Z,12.70
2023-11-08T21:19:59.988Z,12.70
2023-11-08T21:22:26.981Z,12.80
2023-11-08T21:24:54.341Z,12.60
2023-11-08T21:27:22.384Z,12.60
2023-11-08T21:29:49.280Z,12.60
2023-11-08T21:32:16.975Z,12.60
2023-11-08T21:34:44.160Z,12.60
2023-11-08T21:37:12.107Z,12.50
2023-11-08T21:39:42.216Z,12.50
2023-11-08T21:42:09.105Z,12.50
2023-11-08T21:44:36.131Z,12.50
2023-11-08T21:47:03.106Z,12.50
2023-11-08T21:49:30.158Z,12.50
2023-11-08T21:51:58.536Z,12.50
2023-11-08T21:54:25.885Z,12.50
2023-11-08T21:56:53.381Z,12.50
2023-11-08T21:59:23.073Z,12.50
2023-11-08T22:01:50.009Z,12.50
2023-11-08T22:04:17.219Z,12.90
2023-11-08T22:06:44.418Z,12.60
2023-11-08T22:09:11.345Z,12.50
2023-11-08T22:11:38.385Z,12.50
2023-11-08T22:14:07.395Z,12.50
2023-11-08T22:16:34.486Z,12.50
2023-11-08T22:19:01.595Z,12.60
2023-11-08T22:21:28.611Z,12.60
2023-11-08T22:23:55.525Z,12.60
2023-11-08T22:26:23.271Z,12.60
2023-11-08T22:28:50.368Z,12.60
2023-11-08T22:31:18.586Z,12.60
2023-11-08T22:33:45.538Z,12.60
2023-11-08T22:36:13.279Z,12.60
2023-11-08T22:38:40.481Z,12.60
2023-11-08T22:41:07.947Z,12.60
2023-11-08T22:43:34.781Z,12.60
2023-11-08T22:46:02.046Z,12.60
2023-11-08T22:48:29.781Z,12.70
2023-11-08T22:50:59.353Z,12.60
2023-11-08T22:53:26.162Z,12.60
2023-11-08T22:55:52.995Z,12.60
2023-11-08T22:58:20.036Z,12.70
2023-11-08T23:00:47.199Z,12.70
2023-11-08T23:03:15.611Z,12.70
2023-11-08T23:05:44.851Z,12.70
2023-11-08T23:08:11.771Z,12.70
2023-11-08T23:10:38.731Z,12.90
2023-11-08T23:13:05.605Z,12.70
2023-11-08T23:15:32.408Z,12.70
2023-11-08T23:18:00.200Z,12.70
2023-11-08T23:20:27.161Z,12.70
2023-11-08T23:22:58.228Z,12.70
2023-11-08T23:25:25.453Z,12.70
2023-11-08T23:27:52.569Z,12.70
2023-11-08T23:30:19.416Z,12.70
2023-11-08T23:32:46.417Z,12.70
2023-11-08T23:35:13.823Z,12.70
2023-11-08T23:37:42.866Z,12.70
2023-11-08T23:40:10.238Z,12.70
2023-11-08T23:42:37.542Z,12.70
2023-11-08T23:45:06.656Z,12.70
2023-11-08T23:47:33.633Z,12.70
2023-11-08T23:50:00.583Z,12.70
2023-11-08T23:52:27.440Z,12.70
2023-11-08T23:54:54.373Z,12.70
2023-11-08T23:57:21.316Z,12.70
2023-11-08T23:59:48.166Z,12.70
